sensor_id;sensor_type;location;lat;lon;timestamp;pressure;altitude;pressure_sealevel;temperature;humidity
49813;BME280;35706;52.100;5.056;2024-02-26T00:00:27;99936.16;;;7.18;100.00
49813;BME280;35706;52.100;5.056;2024-02-26T00:01:31;99913.56;;;7.17;100.00
49813;BME280;35706;52.100;5.056;2024-02-26T00:02:32;99928.28;;;7.28;100.00
49813;BME280;35706;52.100;5.056;2024-02-26T00:03:37;99930.63;;;7.50;100.00
49813;BME280;35706;52.100;5.056;2024-02-26T00:04:37;99934.63;;;7.35;100.00
49813;BME280;35706;52.100;5.056;2024-02-26T00:05:37;99933.66;;;7.36;100.00
49813;BME280;35706;52.100;5.056;2024-02-26T00:06:39;99933.94;;;7.52;100.00
49813;BME280;35706;52.100;5.056;2024-02-26T00:07:41;99933.13;;;7.52;100.00
49813;BME280;35706;52.100;5.056;2024-02-26T00:08:41;99939.00;;;7.64;100.00
49813;BME280;35706;52.100;5.056;2024-02-26T00:09:42;99939.81;;;7.74;100.00
49813;BME280;35706;52.100;5.056;2024-02-26T00:10:42;99930.19;;;7.74;100.00
49813;BME280;35706;52.100;5.056;2024-02-26T00:11:42;99936.25;;;7.65;100.00
49813;BME280;35706;52.100;5.056;2024-02-26T00:12:43;99936.44;;;7.34;100.00
49813;BME280;35706;52.100;5.056;2024-02-26T00:13:43;99939.44;;;7.40;100.00
49813;BME280;35706;52.100;5.056;2024-02-26T00:14:43;99938.34;;;7.52;100.00
49813;BME280;35706;52.100;5.056;2024-02-26T00:15:46;99935.31;;;7.18;100.00
49813;BME280;35706;52.100;5.056;2024-02-26T00:16:46;99942.16;;;7.09;100.00
49813;BME280;35706;52.100;5.056;2024-02-26T00:17:46;99939.16;;;7.23;100.00
49813;BME280;35706;52.100;5.056;2024-02-26T00:18:47;99939.56;;;7.38;100.00
49813;BME280;35706;52.100;5.056;2024-02-26T00:19:47;99945.63;;;7.58;100.00
49813;BME280;35706;52.100;5.056;2024-02-26T00:20:47;99949.63;;;7.43;100.00
49813;BME280;35706;52.100;5.056;2024-02-26T00:21:48;99950.03;;;7.38;100.00
49813;BME280;35706;52.100;5.056;2024-02-26T00:22:48;99947.13;;;7.12;100.00
49813;BME280;35706;52.100;5.056;2024-02-26T00:23:53;99941.09;;;7.11;100.00
49813;BME280;35706;52.100;5.056;2024-02-26T00:24:53;99937.94;;;7.27;100.00
49813;BME280;35706;52.100;5.056;2024-02-26T00:25:53;99942.91;;;7.30;100.00
49813;BME280;35706;52.100;5.056;2024-02-26T00:26:53;99939.97;;;7.24;100.00
49813;BME280;35706;52.100;5.056;2024-02-26T00:27:54;99940.56;;;7.37;100.00
49813;BME280;35706;52.100;5.056;2024-02-26T00:28:55;99947.97;;;7.03;100.00
49813;BME280;35706;52.100;5.056;2024-02-26T00:29:55;99954.63;;;6.76;100.00
49813;BME280;35706;52.100;5.056;2024-02-26T00:30:55;99948.66;;;7.05;100.00
49813;BME280;35706;52.100;5.056;2024-02-26T00:31:56;99942.84;;;7.11;100.00
49813;BME280;35706;52.100;5.056;2024-02-26T00:32:56;99955.72;;;6.83;100.00
49813;BME280;35706;52.100;5.056;2024-02-26T00:33:56;99955.38;;;7.17;100.00
49813;BME280;35706;52.100;5.056;2024-02-26T00:34:57;99951.13;;;7.36;100.00
49813;BME280;35706;52.100;5.056;2024-02-26T00:35:57;99951.84;;;7.47;100.00
49813;BME280;35706;52.100;5.056;2024-02-26T00:36:57;99952.81;;;7.56;100.00
49813;BME280;35706;52.100;5.056;2024-02-26T00:37:58;99948.78;;;7.42;100.00
49813;BME280;35706;52.100;5.056;2024-02-26T00:38:58;99953.31;;;7.01;100.00
49813;BME280;35706;52.100;5.056;2024-02-26T00:39:59;99944.94;;;7.07;100.00
49813;BME280;35706;52.100;5.056;2024-02-26T00:40:59;99954.56;;;7.36;100.00
49813;BME280;35706;52.100;5.056;2024-02-26T00:41:59;99938.88;;;7.17;100.00
49813;BME280;35706;52.100;5.056;2024-02-26T00:43:00;99950.75;;;7.30;100.00
49813;BME280;35706;52.100;5.056;2024-02-26T00:44:00;99952.34;;;7.02;100.00
49813;BME280;35706;52.100;5.056;2024-02-26T00:45:00;99956.66;;;7.32;100.00
49813;BME280;35706;52.100;5.056;2024-02-26T00:46:01;99963.03;;;6.89;100.00
49813;BME280;35706;52.100;5.056;2024-02-26T00:47:02;99960.06;;;7.23;100.00
49813;BME280;35706;52.100;5.056;2024-02-26T00:48:02;99957.19;;;7.36;100.00
49813;BME280;35706;52.100;5.056;2024-02-26T00:49:06;99955.81;;;7.32;100.00
49813;BME280;35706;52.100;5.056;2024-02-26T00:50:07;99957.88;;;7.19;100.00
49813;BME280;35706;52.100;5.056;2024-02-26T00:51:08;99957.03;;;7.08;100.00
49813;BME280;35706;52.100;5.056;2024-02-26T00:52:08;99956.78;;;7.31;100.00
49813;BME280;35706;52.100;5.056;2024-02-26T00:53:09;99949.91;;;7.40;100.00
49813;BME280;35706;52.100;5.056;2024-02-26T00:54:09;99949.91;;;7.40;100.00
49813;BME280;35706;52.100;5.056;2024-02-26T00:55:09;99955.25;;;7.38;100.00
49813;BME280;35706;52.100;5.056;2024-02-26T00:56:10;99948.81;;;7.32;100.00
49813;BME280;35706;52.100;5.056;2024-02-26T00:57:10;99940.53;;;7.08;100.00
49813;BME280;35706;52.100;5.056;2024-02-26T00:58:11;99950.16;;;7.17;100.00
49813;BME280;35706;52.100;5.056;2024-02-26T00:59:12;99948.47;;;6.87;100.00
49813;BME280;35706;52.100;5.056;2024-02-26T01:00:12;99949.31;;;6.97;100.00
49813;BME280;35706;52.100;5.056;2024-02-26T01:01:13;99955.66;;;7.14;100.00
49813;BME280;35706;52.100;5.056;2024-02-26T01:02:13;99950.16;;;7.07;100.00
49813;BME280;35706;52.100;5.056;2024-02-26T01:03:14;99949.88;;;7.30;100.00
49813;BME280;35706;52.100;5.056;2024-02-26T01:04:15;99948.69;;;7.53;100.00
49813;BME280;35706;52.100;5.056;2024-02-26T01:05:15;99953.03;;;7.24;100.00
49813;BME280;35706;52.100;5.056;2024-02-26T01:06:16;99944.06;;;6.87;100.00
49813;BME280;35706;52.100;5.056;2024-02-26T01:07:17;99955.94;;;7.01;100.00
49813;BME280;35706;52.100;5.056;2024-02-26T01:08:17;99957.28;;;6.96;100.00
49813;BME280;35706;52.100;5.056;2024-02-26T01:09:18;99949.56;;;6.84;100.00
49813;BME280;35706;52.100;5.056;2024-02-26T01:10:18;99954.47;;;6.68;100.00
49813;BME280;35706;52.100;5.056;2024-02-26T01:11:19;99956.66;;;6.72;100.00
49813;BME280;35706;52.100;5.056;2024-02-26T01:12:19;99956.13;;;6.79;100.00
49813;BME280;35706;52.100;5.056;2024-02-26T01:13:20;99951.69;;;7.29;100.00
49813;BME280;35706;52.100;5.056;2024-02-26T01:14:20;99946.75;;;7.26;100.00
49813;BME280;35706;52.100;5.056;2024-02-26T01:15:20;99953.31;;;7.11;100.00
49813;BME280;35706;52.100;5.056;2024-02-26T01:16:23;99955.13;;;7.40;100.00
49813;BME280;35706;52.100;5.056;2024-02-26T01:17:24;99945.75;;;7.27;100.00
49813;BME280;35706;52.100;5.056;2024-02-26T01:18:24;99955.91;;;7.11;100.00
49813;BME280;35706;52.100;5.056;2024-02-26T01:19:24;99955.06;;;6.91;100.00
49813;BME280;35706;52.100;5.056;2024-02-26T01:20:25;99952.38;;;7.12;100.00
49813;BME280;35706;52.100;5.056;2024-02-26T01:21:25;99949.34;;;7.26;100.00
49813;BME280;35706;52.100;5.056;2024-02-26T01:22:29;99946.03;;;7.34;100.00
49813;BME280;35706;52.100;5.056;2024-02-26T01:23:29;99951.53;;;7.11;100.00
49813;BME280;35706;52.100;5.056;2024-02-26T01:24:29;99948.53;;;7.16;100.00
49813;BME280;35706;52.100;5.056;2024-02-26T01:25:30;99947.56;;;7.27;100.00
49813;BME280;35706;52.100;5.056;2024-02-26T01:26:30;99949.91;;;7.40;100.00
49813;BME280;35706;52.100;5.056;2024-02-26T01:27:31;99949.56;;;6.84;100.00
49813;BME280;35706;52.100;5.056;2024-02-26T01:28:31;99946.75;;;6.66;100.00
49813;BME280;35706;52.100;5.056;2024-02-26T01:29:31;99951.66;;;7.10;100.00
49813;BME280;35706;52.100;5.056;2024-02-26T01:30:32;99945.91;;;7.26;100.00
49813;BME280;35706;52.100;5.056;2024-02-26T01:31:32;99941.38;;;7.18;100.00
49813;BME280;35706;52.100;5.056;2024-02-26T01:32:32;99944.81;;;7.28;100.00
49813;BME280;35706;52.100;5.056;2024-02-26T01:33:33;99934.19;;;7.30;100.00
49813;BME280;35706;52.100;5.056;2024-02-26T01:34:33;99940.50;;;6.98;100.00
49813;BME280;35706;52.100;5.056;2024-02-26T01:35:33;99944.41;;;7.33;100.00
49813;BME280;35706;52.100;5.056;2024-02-26T01:36:34;99944.91;;;6.98;100.00
49813;BME280;35706;52.100;5.056;2024-02-26T01:37:34;99940.81;;;7.05;100.00
49813;BME280;35706;52.100;5.056;2024-02-26T01:38:35;99948.66;;;7.34;100.00
49813;BME280;35706;52.100;5.056;2024-02-26T01:39:35;99947.19;;;6.81;100.00
49813;BME280;35706;52.100;5.056;2024-02-26T01:40:35;99941.06;;;7.02;100.00
49813;BME280;35706;52.100;5.056;2024-02-26T01:41:36;99942.13;;;6.89;100.00
49813;BME280;35706;52.100;5.056;2024-02-26T01:42:40;99949.97;;;6.89;100.00
49813;BME280;35706;52.100;5.056;2024-02-26T01:43:41;99944.53;;;7.12;100.00
49813;BME280;35706;52.100;5.056;2024-02-26T01:44:41;99942.03;;;7.01;100.00
49813;BME280;35706;52.100;5.056;2024-02-26T01:45:42;99936.53;;;7.23;100.00
49813;BME280;35706;52.100;5.056;2024-02-26T01:46:43;99936.16;;;7.18;100.00
49813;BME280;35706;52.100;5.056;2024-02-26T01:47:43;99935.38;;;6.77;100.00
49813;BME280;35706;52.100;5.056;2024-02-26T01:48:45;99936.75;;;6.71;100.00
49813;BME280;35706;52.100;5.056;2024-02-26T01:49:45;99936.13;;;7.08;100.00
49813;BME280;35706;52.100;5.056;2024-02-26T01:50:46;99940.41;;;7.09;100.00
49813;BME280;35706;52.100;5.056;2024-02-26T01:51:46;99938.00;;;6.87;100.00
49813;BME280;35706;52.100;5.056;2024-02-26T01:52:48;99940.91;;;6.93;100.00
49813;BME280;35706;52.100;5.056;2024-02-26T01:53:49;99941.34;;;6.58;100.00
49813;BME280;35706;52.100;5.056;2024-02-26T01:54:50;99946.25;;;6.92;100.00
49813;BME280;35706;52.100;5.056;2024-02-26T01:55:50;99943.69;;;7.02;100.00
49813;BME280;35706;52.100;5.056;2024-02-26T01:56:51;99941.91;;;7.12;100.00
49813;BME280;35706;52.100;5.056;2024-02-26T01:57:51;99945.88;;;7.06;100.00
49813;BME280;35706;52.100;5.056;2024-02-26T01:58:52;99937.22;;;7.25;100.00
49813;BME280;35706;52.100;5.056;2024-02-26T01:59:53;99943.28;;;6.97;100.00
49813;BME280;35706;52.100;5.056;2024-02-26T02:00:53;99945.97;;;6.85;100.00
49813;BME280;35706;52.100;5.056;2024-02-26T02:01:55;99952.50;;;6.60;100.00
49813;BME280;35706;52.100;5.056;2024-02-26T02:02:57;99955.50;;;6.56;100.00
49813;BME280;35706;52.100;5.056;2024-02-26T02:03:59;99954.34;;;6.79;100.00
49813;BME280;35706;52.100;5.056;2024-02-26T02:05:00;99955.94;;;7.01;100.00
49813;BME280;35706;52.100;5.056;2024-02-26T02:06:02;99956.19;;;6.88;100.00
49813;BME280;35706;52.100;5.056;2024-02-26T02:07:03;99957.47;;;7.13;100.00
49813;BME280;35706;52.100;5.056;2024-02-26T02:08:03;99956.47;;;6.95;100.00
49813;BME280;35706;52.100;5.056;2024-02-26T02:09:05;99959.50;;;7.10;100.00
49813;BME280;35706;52.100;5.056;2024-02-26T02:10:07;99961.72;;;7.24;100.00
49813;BME280;35706;52.100;5.056;2024-02-26T02:11:08;99967.66;;;7.26;100.00
49813;BME280;35706;52.100;5.056;2024-02-26T02:12:11;99961.19;;;7.30;100.00
49813;BME280;35706;52.100;5.056;2024-02-26T02:13:11;99966.13;;;7.33;100.00
49813;BME280;35706;52.100;5.056;2024-02-26T02:14:12;99959.91;;;7.05;100.00
49813;BME280;35706;52.100;5.056;2024-02-26T02:15:12;99959.88;;;6.86;100.00
49813;BME280;35706;52.100;5.056;2024-02-26T02:16:13;99974.75;;;6.95;100.00
49813;BME280;35706;52.100;5.056;2024-02-26T02:17:13;99965.00;;;7.07;100.00
49813;BME280;35706;52.100;5.056;2024-02-26T02:18:14;99966.88;;;6.85;100.00
49813;BME280;35706;52.100;5.056;2024-02-26T02:19:14;99962.13;;;7.10;100.00
49813;BME280;35706;52.100;5.056;2024-02-26T02:20:16;99969.00;;;7.11;100.00
49813;BME280;35706;52.100;5.056;2024-02-26T02:21:17;99965.28;;;7.23;100.00
49813;BME280;35706;52.100;5.056;2024-02-26T02:22:18;99967.47;;;7.08;100.00
49813;BME280;35706;52.100;5.056;2024-02-26T02:23:18;99967.28;;;6.81;100.00
49813;BME280;35706;52.100;5.056;2024-02-26T02:24:19;99974.63;;;6.97;100.00
49813;BME280;35706;52.100;5.056;2024-02-26T02:25:19;99976.41;;;7.06;100.00
49813;BME280;35706;52.100;5.056;2024-02-26T02:26:20;99977.41;;;7.24;100.00
49813;BME280;35706;52.100;5.056;2024-02-26T02:27:21;99969.56;;;7.05;100.00
49813;BME280;35706;52.100;5.056;2024-02-26T02:28:21;99972.13;;;6.95;100.00
49813;BME280;35706;52.100;5.056;2024-02-26T02:29:22;99983.72;;;7.12;100.00
49813;BME280;35706;52.100;5.056;2024-02-26T02:30:25;99971.59;;;7.11;100.00
49813;BME280;35706;52.100;5.056;2024-02-26T02:31:26;99967.56;;;6.87;100.00
49813;BME280;35706;52.100;5.056;2024-02-26T02:32:27;99974.50;;;7.08;100.00
49813;BME280;35706;52.100;5.056;2024-02-26T02:33:29;99976.31;;;7.27;100.00
49813;BME280;35706;52.100;5.056;2024-02-26T02:34:30;99970.13;;;7.38;100.00
49813;BME280;35706;52.100;5.056;2024-02-26T02:35:31;99973.22;;;6.92;100.00
49813;BME280;35706;52.100;5.056;2024-02-26T02:36:32;99980.16;;;6.63;100.00
49813;BME280;35706;52.100;5.056;2024-02-26T02:37:32;99974.91;;;7.03;100.00
49813;BME280;35706;52.100;5.056;2024-02-26T02:38:32;99975.22;;;7.20;100.00
49813;BME280;35706;52.100;5.056;2024-02-26T02:39:34;99978.50;;;7.31;100.00
49813;BME280;35706;52.100;5.056;2024-02-26T02:40:34;99973.84;;;7.35;100.00
49813;BME280;35706;52.100;5.056;2024-02-26T02:41:34;99981.16;;;6.81;100.00
49813;BME280;35706;52.100;5.056;2024-02-26T02:42:35;99978.66;;;6.70;100.00
49813;BME280;35706;52.100;5.056;2024-02-26T02:43:35;99976.00;;;7.01;100.00
49813;BME280;35706;52.100;5.056;2024-02-26T02:44:35;99971.91;;;7.18;100.00
49813;BME280;35706;52.100;5.056;2024-02-26T02:45:36;99979.59;;;7.19;100.00
49813;BME280;35706;52.100;5.056;2024-02-26T02:46:36;99979.63;;;7.29;100.00
49813;BME280;35706;52.100;5.056;2024-02-26T02:47:37;99984.72;;;7.30;100.00
49813;BME280;35706;52.100;5.056;2024-02-26T02:48:41;99993.94;;;7.34;100.00
49813;BME280;35706;52.100;5.056;2024-02-26T02:49:42;99990.19;;;7.27;100.00
49813;BME280;35706;52.100;5.056;2024-02-26T02:50:42;100000.41;;;7.30;100.00
49813;BME280;35706;52.100;5.056;2024-02-26T02:51:43;100005.53;;;6.82;100.00
49813;BME280;35706;52.100;5.056;2024-02-26T02:52:43;100000.13;;;6.83;100.00
49813;BME280;35706;52.100;5.056;2024-02-26T02:53:43;99989.84;;;6.91;100.00
49813;BME280;35706;52.100;5.056;2024-02-26T02:54:44;99995.97;;;7.11;100.00
49813;BME280;35706;52.100;5.056;2024-02-26T02:55:44;100002.69;;;7.04;100.00
49813;BME280;35706;52.100;5.056;2024-02-26T02:56:44;100004.88;;;7.09;100.00
49813;BME280;35706;52.100;5.056;2024-02-26T02:57:45;100002.25;;;6.99;100.00
49813;BME280;35706;52.100;5.056;2024-02-26T02:58:45;100004.09;;;7.18;100.00
49813;BME280;35706;52.100;5.056;2024-02-26T02:59:46;100007.78;;;7.06;100.00
49813;BME280;35706;52.100;5.056;2024-02-26T03:00:47;100006.22;;;6.93;100.00
49813;BME280;35706;52.100;5.056;2024-02-26T03:01:47;100007.31;;;6.91;100.00
49813;BME280;35706;52.100;5.056;2024-02-26T03:02:47;100013.16;;;7.24;100.00
49813;BME280;35706;52.100;5.056;2024-02-26T03:03:48;100011.44;;;6.84;100.00
49813;BME280;35706;52.100;5.056;2024-02-26T03:04:48;100011.66;;;7.11;100.00
49813;BME280;35706;52.100;5.056;2024-02-26T03:05:48;100016.03;;;7.11;100.00
49813;BME280;35706;52.100;5.056;2024-02-26T03:06:48;100008.47;;;7.08;100.00
49813;BME280;35706;52.100;5.056;2024-02-26T03:07:49;100017.81;;;7.01;100.00
49813;BME280;35706;52.100;5.056;2024-02-26T03:08:49;100019.66;;;7.29;100.00
49813;BME280;35706;52.100;5.056;2024-02-26T03:09:49;100022.41;;;6.78;100.00
49813;BME280;35706;52.100;5.056;2024-02-26T03:10:50;100023.06;;;6.70;100.00
49813;BME280;35706;52.100;5.056;2024-02-26T03:11:50;100014.81;;;6.65;100.00
49813;BME280;35706;52.100;5.056;2024-02-26T03:12:50;100023.06;;;6.70;100.00
49813;BME280;35706;52.100;5.056;2024-02-26T03:13:51;100015.19;;;7.01;100.00
49813;BME280;35706;52.100;5.056;2024-02-26T03:14:51;100019.63;;;7.10;100.00
49813;BME280;35706;52.100;5.056;2024-02-26T03:15:52;100018.66;;;7.21;100.00
49813;BME280;35706;52.100;5.056;2024-02-26T03:16:54;100033.31;;;6.92;100.00
49813;BME280;35706;52.100;5.056;2024-02-26T03:17:55;100032.88;;;6.87;100.00
49813;BME280;35706;52.100;5.056;2024-02-26T03:18:55;100030.31;;;7.07;100.00
49813;BME280;35706;52.100;5.056;2024-02-26T03:19:55;100028.16;;;7.12;100.00
49813;BME280;35706;52.100;5.056;2024-02-26T03:20:55;100027.63;;;6.78;100.00
49813;BME280;35706;52.100;5.056;2024-02-26T03:21:56;100032.94;;;7.07;100.00
49813;BME280;35706;52.100;5.056;2024-02-26T03:22:56;100029.78;;;7.03;100.00
49813;BME280;35706;52.100;5.056;2024-02-26T03:23:56;100034.28;;;6.91;100.00
49813;BME280;35706;52.100;5.056;2024-02-26T03:24:57;100033.25;;;7.23;100.00
49813;BME280;35706;52.100;5.056;2024-02-26T03:25:58;100040.09;;;7.05;100.00
49813;BME280;35706;52.100;5.056;2024-02-26T03:26:58;100045.06;;;7.08;100.00
49813;BME280;35706;52.100;5.056;2024-02-26T03:27:58;100054.91;;;6.95;100.00
49813;BME280;35706;52.100;5.056;2024-02-26T03:28:58;100047.16;;;6.83;100.00
49813;BME280;35706;52.100;5.056;2024-02-26T03:29:59;100053.25;;;6.93;100.00
49813;BME280;35706;52.100;5.056;2024-02-26T03:31:01;100057.03;;;7.10;100.00
49813;BME280;35706;52.100;5.056;2024-02-26T03:32:02;100059.84;;;6.88;100.00
49813;BME280;35706;52.100;5.056;2024-02-26T03:33:02;100053.19;;;7.14;100.00
49813;BME280;35706;52.100;5.056;2024-02-26T03:34:03;100055.63;;;6.97;100.00
49813;BME280;35706;52.100;5.056;2024-02-26T03:35:04;100059.63;;;7.10;100.00
49813;BME280;35706;52.100;5.056;2024-02-26T03:36:04;100056.13;;;6.60;100.00
49813;BME280;35706;52.100;5.056;2024-02-26T03:37:05;100061.38;;;7.00;100.00
49813;BME280;35706;52.100;5.056;2024-02-26T03:38:06;100058.53;;;7.03;100.00
49813;BME280;35706;52.100;5.056;2024-02-26T03:39:06;100055.47;;;6.98;100.00
49813;BME280;35706;52.100;5.056;2024-02-26T03:40:07;100062.00;;;6.83;100.00
49813;BME280;35706;52.100;5.056;2024-02-26T03:41:08;100058.31;;;6.85;100.00
49813;BME280;35706;52.100;5.056;2024-02-26T03:42:08;100051.03;;;6.58;100.00
49813;BME280;35706;52.100;5.056;2024-02-26T03:43:09;100063.59;;;6.43;100.00
49813;BME280;35706;52.100;5.056;2024-02-26T03:44:09;100051.00;;;6.79;100.00
49813;BME280;35706;52.100;5.056;2024-02-26T03:45:10;100053.56;;;6.69;100.00
49813;BME280;35706;52.100;5.056;2024-02-26T03:46:10;100056.78;;;6.83;100.00
49813;BME280;35706;52.100;5.056;2024-02-26T03:47:11;100054.13;;;6.73;100.00
49813;BME280;35706;52.100;5.056;2024-02-26T03:48:11;100053.69;;;6.68;100.00
49813;BME280;35706;52.100;5.056;2024-02-26T03:49:12;100051.25;;;6.76;100.00
49813;BME280;35706;52.100;5.056;2024-02-26T03:50:13;100057.97;;;6.69;100.00
49813;BME280;35706;52.100;5.056;2024-02-26T03:51:13;100063.97;;;6.39;100.00
49813;BME280;35706;52.100;5.056;2024-02-26T03:52:14;100055.81;;;6.53;100.00
49813;BME280;35706;52.100;5.056;2024-02-26T03:53:15;100050.03;;;6.49;100.00
49813;BME280;35706;52.100;5.056;2024-02-26T03:54:15;100058.25;;;6.45;100.00
49813;BME280;35706;52.100;5.056;2024-02-26T03:55:15;100054.66;;;6.67;100.00
49813;BME280;35706;52.100;5.056;2024-02-26T03:56:18;100058.34;;;6.64;100.00
49813;BME280;35706;52.100;5.056;2024-02-26T03:57:18;100055.41;;;6.79;100.00
49813;BME280;35706;52.100;5.056;2024-02-26T03:58:18;100052.75;;;6.69;100.00
49813;BME280;35706;52.100;5.056;2024-02-26T03:59:19;100061.41;;;6.69;100.00
49813;BME280;35706;52.100;5.056;2024-02-26T04:00:20;100052.28;;;6.54;100.00
49813;BME280;35706;52.100;5.056;2024-02-26T04:01:20;100051.41;;;6.53;100.00
49813;BME280;35706;52.100;5.056;2024-02-26T04:02:21;100067.97;;;6.95;100.00
49813;BME280;35706;52.100;5.056;2024-02-26T04:03:23;100055.97;;;6.92;100.00
49813;BME280;35706;52.100;5.056;2024-02-26T04:04:23;100060.31;;;6.72;100.00
49813;BME280;35706;52.100;5.056;2024-02-26T04:05:23;100062.94;;;6.72;100.00
49813;BME280;35706;52.100;5.056;2024-02-26T04:06:23;100053.81;;;6.66;100.00
49813;BME280;35706;52.100;5.056;2024-02-26T04:07:24;100059.41;;;6.52;100.00
49813;BME280;35706;52.100;5.056;2024-02-26T04:08:24;100053.72;;;6.47;100.00
49813;BME280;35706;52.100;5.056;2024-02-26T04:09:24;100062.53;;;6.77;100.00
49813;BME280;35706;52.100;5.056;2024-02-26T04:10:25;100055.41;;;6.79;100.00
49813;BME280;35706;52.100;5.056;2024-02-26T04:11:25;100063.66;;;6.53;100.00
49813;BME280;35706;52.100;5.056;2024-02-26T04:12:26;100058.81;;;6.79;100.00
49813;BME280;35706;52.100;5.056;2024-02-26T04:13:26;100069.75;;;6.63;100.00
49813;BME280;35706;52.100;5.056;2024-02-26T04:14:26;100057.22;;;6.88;100.00
49813;BME280;35706;52.100;5.056;2024-02-26T04:15:26;100066.34;;;6.72;100.00
49813;BME280;35706;52.100;5.056;2024-02-26T04:16:27;100060.84;;;6.66;100.00
49813;BME280;35706;52.100;5.056;2024-02-26T04:17:27;100066.75;;;6.37;100.00
49813;BME280;35706;52.100;5.056;2024-02-26T04:18:28;100057.50;;;6.54;100.00
49813;BME280;35706;52.100;5.056;2024-02-26T04:19:28;100071.16;;;6.67;100.00
49813;BME280;35706;52.100;5.056;2024-02-26T04:20:28;100071.63;;;6.82;100.00
49813;BME280;35706;52.100;5.056;2024-02-26T04:21:29;100073.09;;;6.44;100.00
49813;BME280;35706;52.100;5.056;2024-02-26T04:22:29;100069.88;;;6.62;100.00
49813;BME280;35706;52.100;5.056;2024-02-26T04:23:29;100072.16;;;6.76;100.00
49813;BME280;35706;52.100;5.056;2024-02-26T04:24:29;100069.84;;;6.83;100.00
49813;BME280;35706;52.100;5.056;2024-02-26T04:25:30;100067.19;;;6.73;100.00
49813;BME280;35706;52.100;5.056;2024-02-26T04:26:30;100070.88;;;6.70;100.00
49813;BME280;35706;52.100;5.056;2024-02-26T04:27:31;100072.41;;;6.73;100.00
49813;BME280;35706;52.100;5.056;2024-02-26T04:28:31;100078.25;;;6.86;100.00
49813;BME280;35706;52.100;5.056;2024-02-26T04:29:31;100078.22;;;7.07;100.00
49813;BME280;35706;52.100;5.056;2024-02-26T04:30:31;100069.09;;;7.02;100.00
49813;BME280;35706;52.100;5.056;2024-02-26T04:31:32;100082.53;;;6.66;100.00
49813;BME280;35706;52.100;5.056;2024-02-26T04:32:33;100084.31;;;6.35;100.00
49813;BME280;35706;52.100;5.056;2024-02-26T04:33:34;100076.81;;;6.72;100.00
49813;BME280;35706;52.100;5.056;2024-02-26T04:34:35;100091.75;;;6.91;100.00
49813;BME280;35706;52.100;5.056;2024-02-26T04:35:35;100079.47;;;6.82;100.00
49813;BME280;35706;52.100;5.056;2024-02-26T04:36:35;100083.31;;;6.78;100.00
49813;BME280;35706;52.100;5.056;2024-02-26T04:37:36;100080.91;;;6.65;100.00
49813;BME280;35706;52.100;5.056;2024-02-26T04:38:36;100080.59;;;6.59;100.00
49813;BME280;35706;52.100;5.056;2024-02-26T04:39:36;100066.91;;;6.45;100.00
49813;BME280;35706;52.100;5.056;2024-02-26T04:40:36;100087.72;;;6.57;100.00
49813;BME280;35706;52.100;5.056;2024-02-26T04:41:37;100083.69;;;6.73;100.00
49813;BME280;35706;52.100;5.056;2024-02-26T04:42:37;100084.25;;;6.77;100.00
49813;BME280;35706;52.100;5.056;2024-02-26T04:43:38;100087.47;;;6.39;100.00
49813;BME280;35706;52.100;5.056;2024-02-26T04:44:44;100092.25;;;6.34;100.00
49813;BME280;35706;52.100;5.056;2024-02-26T04:45:44;100091.09;;;6.47;100.00
49813;BME280;35706;52.100;5.056;2024-02-26T04:46:45;100090.34;;;6.36;100.00
49813;BME280;35706;52.100;5.056;2024-02-26T04:47:46;100096.00;;;6.62;100.00
49813;BME280;35706;52.100;5.056;2024-02-26T04:48:47;100091.56;;;6.83;100.00
49813;BME280;35706;52.100;5.056;2024-02-26T04:49:49;100083.00;;;6.71;100.00
49813;BME280;35706;52.100;5.056;2024-02-26T04:50:49;100087.78;;;6.97;100.00
49813;BME280;35706;52.100;5.056;2024-02-26T04:51:50;100092.28;;;6.64;100.00
49813;BME280;35706;52.100;5.056;2024-02-26T04:52:50;100082.91;;;6.83;100.00
49813;BME280;35706;52.100;5.056;2024-02-26T04:53:50;100078.97;;;6.88;100.00
49813;BME280;35706;52.100;5.056;2024-02-26T04:54:53;100082.66;;;6.86;100.00
49813;BME280;35706;52.100;5.056;2024-02-26T04:55:54;100073.03;;;6.86;100.00
49813;BME280;35706;52.100;5.056;2024-02-26T04:56:55;100078.13;;;6.88;100.00
49813;BME280;35706;52.100;5.056;2024-02-26T04:57:55;100077.47;;;6.65;100.00
49813;BME280;35706;52.100;5.056;2024-02-26T04:58:55;100082.53;;;6.66;100.00
49813;BME280;35706;52.100;5.056;2024-02-26T04:59:56;100088.25;;;6.81;100.00
49813;BME280;35706;52.100;5.056;2024-02-26T05:00:56;100087.28;;;6.51;100.00
49813;BME280;35706;52.100;5.056;2024-02-26T05:01:56;100094.41;;;6.49;100.00
49813;BME280;35706;52.100;5.056;2024-02-26T05:02:56;100094.88;;;6.55;100.00
49813;BME280;35706;52.100;5.056;2024-02-26T05:03:57;100087.31;;;6.82;100.00
49813;BME280;35706;52.100;5.056;2024-02-26T05:04:57;100095.31;;;6.90;100.00
49813;BME280;35706;52.100;5.056;2024-02-26T05:05:57;100095.16;;;6.92;100.00
49813;BME280;35706;52.100;5.056;2024-02-26T05:06:58;100089.59;;;6.97;100.00
49813;BME280;35706;52.100;5.056;2024-02-26T05:07:58;100091.19;;;6.88;100.00
49813;BME280;35706;52.100;5.056;2024-02-26T05:08:58;100098.56;;;6.83;100.00
49813;BME280;35706;52.100;5.056;2024-02-26T05:09:59;100102.56;;;6.35;100.00
49813;BME280;35706;52.100;5.056;2024-02-26T05:10:59;100100.97;;;6.23;100.00
49813;BME280;35706;52.100;5.056;2024-02-26T05:12:00;100106.84;;;6.36;100.00
49813;BME280;35706;52.100;5.056;2024-02-26T05:13:00;100108.53;;;6.68;100.00
49813;BME280;35706;52.100;5.056;2024-02-26T05:14:02;100104.63;;;6.83;100.00
49813;BME280;35706;52.100;5.056;2024-02-26T05:15:03;100109.91;;;6.93;100.00
49813;BME280;35706;52.100;5.056;2024-02-26T05:16:03;100109.34;;;6.89;100.00
49813;BME280;35706;52.100;5.056;2024-02-26T05:17:04;100117.19;;;6.47;100.00
49813;BME280;35706;52.100;5.056;2024-02-26T05:18:06;100115.78;;;6.64;100.00
49813;BME280;35706;52.100;5.056;2024-02-26T05:19:07;100113.16;;;6.85;100.00